createdAt,value
2023-01-11T00:00:19.479Z,8.30
2023-01-11T00:05:20.835Z,8.39
2023-01-11T00:10:22.267Z,8.42
2023-01-11T00:15:23.665Z,8.45
2023-01-11T00:20:25.148Z,8.53
2023-01-11T00:25:27.596Z,8.56
2023-01-11T00:30:28.950Z,8.57
2023-01-11T00:35:32.177Z,8.65
2023-01-11T00:40:33.551Z,8.66
2023-01-11T00:45:53.489Z,8.69
2023-01-11T00:50:57.214Z,8.67
2023-01-11T00:55:58.611Z,8.69
2023-01-11T01:01:06.347Z,8.75
2023-01-11T01:06:07.755Z,8.75
2023-01-11T01:11:09.181Z,8.74
2023-01-11T01:16:10.597Z,8.72
2023-01-11T01:21:12.272Z,8.83
2023-01-11T01:26:13.735Z,8.83
2023-01-11T01:31:15.183Z,8.87
2023-01-11T01:36:16.621Z,8.84
2023-01-11T01:41:17.968Z,8.90
2023-01-11T01:46:22.129Z,9.01
2023-01-11T01:51:34.666Z,8.97
2023-01-11T01:56:45.101Z,9.01
2023-01-11T02:01:47.176Z,9.02
2023-01-11T02:06:49.545Z,9.03
2023-01-11T02:11:51.282Z,9.11
2023-01-11T02:16:52.790Z,9.15
2023-01-11T02:22:23.702Z,9.18
2023-01-11T02:27:47.181Z,9.21
2023-01-11T02:33:08.679Z,9.23
2023-01-11T02:38:28.088Z,9.25
2023-01-11T02:43:56.241Z,9.23
2023-01-11T02:49:33.869Z,9.40
2023-01-11T02:54:37.914Z,9.45
2023-01-11T02:59:40.531Z,9.40
2023-01-11T03:04:41.904Z,9.58
2023-01-11T03:10:19.992Z,9.65
2023-01-11T03:15:45.949Z,9.71
2023-01-11T03:20:54.644Z,9.68
2023-01-11T03:26:05.131Z,9.65
2023-01-11T03:31:50.942Z,9.66
2023-01-11T03:37:18.248Z,9.70
2023-01-11T03:42:22.286Z,9.71
2023-01-11T03:47:25.724Z,9.73
2023-01-11T03:52:34.937Z,9.71
2023-01-11T03:57:40.431Z,9.67
2023-01-11T04:02:42.326Z,9.78
2023-01-11T04:07:43.702Z,9.76
2023-01-11T04:12:49.086Z,9.78
2023-01-11T04:17:50.436Z,9.78
2023-01-11T04:22:52.035Z,9.82
2023-01-11T04:27:54.867Z,9.80
2023-01-11T04:32:59.119Z,9.82
2023-01-11T04:38:00.563Z,9.86
2023-01-11T04:43:02.362Z,9.90
2023-01-11T04:48:03.943Z,9.92
2023-01-11T04:53:05.487Z,9.95
2023-01-11T04:58:06.850Z,9.98
2023-01-11T05:03:08.240Z,9.99
2023-01-11T05:08:09.661Z,9.93
2023-01-11T05:13:11.040Z,9.95
2023-01-11T05:18:12.464Z,9.91
2023-01-11T05:23:14.496Z,9.90
2023-01-11T05:28:16.075Z,9.93
2023-01-11T05:33:17.713Z,9.92
2023-01-11T05:38:19.172Z,9.88
2023-01-11T05:43:20.823Z,9.86
2023-01-11T05:48:22.268Z,9.85
2023-01-11T05:53:24.147Z,9.82
2023-01-11T05:58:26.571Z,9.80
2023-01-11T06:03:28.772Z,9.75
2023-01-11T06:08:30.165Z,9.69
2023-01-11T06:13:33.954Z,9.67
2023-01-11T06:18:40.969Z,9.59
2023-01-11T06:23:45.461Z,9.47
2023-01-11T06:28:47.495Z,9.37
2023-01-11T06:33:49.026Z,9.34
2023-01-11T06:38:52.573Z,9.26
2023-01-11T06:43:54.485Z,9.17
2023-01-11T06:48:55.952Z,9.09
2023-01-11T06:53:57.371Z,9.07
2023-01-11T06:58:58.815Z,9.04
2023-01-11T07:04:00.242Z,9.00
2023-01-11T07:09:01.643Z,8.96
2023-01-11T07:14:03.041Z,8.93
2023-01-11T07:19:04.470Z,8.87
2023-01-11T07:24:06.086Z,8.90
2023-01-11T07:29:10.992Z,8.85
2023-01-11T07:34:12.487Z,8.80
2023-01-11T07:39:13.940Z,8.74
2023-01-11T07:44:15.394Z,8.69
2023-01-11T07:49:16.844Z,8.64
2023-01-11T07:54:18.764Z,8.62
2023-01-11T07:59:20.226Z,8.49
2023-01-11T08:04:22.189Z,8.40
2023-01-11T08:09:23.546Z,8.39
2023-01-11T08:14:40.080Z,8.37
2023-01-11T08:19:42.414Z,8.33
2023-01-11T08:24:44.237Z,8.24
2023-01-11T08:29:45.689Z,8.22
2023-01-11T08:34:50.259Z,8.25
2023-01-11T08:39:51.678Z,8.18
2023-01-11T08:44:53.089Z,8.10
2023-01-11T08:49:54.509Z,8.01
2023-01-11T08:54:55.944Z,7.88
2023-01-11T08:59:57.346Z,7.85
2023-01-11T09:04:58.871Z,7.84
2023-01-11T09:10:00.348Z,7.84
2023-01-11T09:15:01.862Z,7.83
2023-01-11T09:20:03.746Z,7.83
2023-01-11T09:25:05.890Z,7.72
2023-01-11T09:30:08.135Z,7.66
2023-01-11T09:35:10.129Z,7.63
2023-01-11T09:40:20.756Z,7.55
2023-01-11T09:45:24.643Z,7.55
2023-01-11T09:50:29.393Z,7.49
2023-01-11T09:55:44.690Z,7.54
2023-01-11T10:01:01.514Z,7.57
2023-01-11T10:06:20.744Z,7.75
2023-01-11T10:18:40.286Z,7.98
2023-01-11T10:22:47.209Z,8.05
2023-01-11T10:27:49.924Z,8.18
2023-01-11T10:33:06.791Z,8.17
2023-01-11T10:38:30.869Z,8.30
2023-01-11T10:43:38.031Z,8.41
2023-01-11T10:48:42.357Z,8.48
2023-01-11T10:53:59.203Z,8.61
2023-01-11T10:59:18.883Z,8.66
2023-01-11T11:04:59.183Z,8.77
2023-01-11T11:10:14.707Z,8.75
2023-01-11T11:15:35.031Z,8.91
2023-01-11T11:20:36.511Z,9.21
2023-01-11T11:25:43.302Z,9.34
2023-01-11T11:30:47.217Z,9.37
2023-01-11T14:45:50.173Z,8.46
2023-01-11T14:51:06.947Z,8.46
2023-01-11T14:56:42.239Z,8.48
2023-01-11T15:02:13.095Z,8.36
2023-01-11T15:07:29.813Z,8.29
2023-01-11T15:12:37.490Z,8.31
2023-01-11T15:17:59.069Z,8.27
2023-01-11T15:23:03.570Z,8.35
2023-01-11T15:28:33.628Z,8.28
2023-01-11T15:33:47.317Z,8.29
2023-01-11T15:39:07.199Z,8.26
2023-01-11T15:45:06.187Z,8.12
2023-01-11T15:50:35.012Z,7.90
2023-01-11T15:56:07.992Z,7.73
2023-01-11T16:01:25.201Z,7.69
2023-01-11T16:06:35.782Z,7.76
2023-01-11T16:11:52.141Z,7.64
2023-01-11T16:16:55.823Z,7.90
2023-01-11T16:21:59.382Z,7.86
2023-01-11T16:27:03.742Z,7.95
2023-01-11T16:32:07.811Z,7.86
2023-01-11T16:37:40.069Z,7.98
2023-01-11T16:42:56.816Z,8.04
2023-01-11T16:48:36.761Z,8.05
2023-01-11T16:53:40.781Z,7.98
2023-01-11T16:58:43.611Z,8.00
2023-01-11T17:03:54.917Z,8.01
2023-01-11T17:08:59.937Z,8.07
2023-01-11T17:14:01.310Z,8.20
2023-01-11T17:19:09.339Z,8.05
2023-01-11T17:24:13.308Z,7.98
2023-01-11T17:29:25.436Z,8.17
2023-01-11T17:34:32.072Z,7.96
2023-01-11T17:39:35.580Z,8.06
2023-01-11T17:44:56.051Z,8.03
2023-01-11T17:50:00.394Z,8.12
2023-01-11T17:55:23.118Z,8.01
2023-01-11T18:00:28.074Z,8.03
2023-01-11T18:05:31.130Z,8.12
2023-01-11T18:10:38.088Z,8.12
2023-01-11T18:15:39.928Z,8.14
2023-01-11T18:20:42.606Z,8.14
2023-01-11T18:25:46.532Z,8.16
2023-01-11T18:30:53.838Z,8.15
2023-01-11T18:36:03.690Z,8.12
2023-01-11T18:41:26.709Z,8.06
2023-01-11T18:46:28.617Z,8.36
2023-01-11T18:51:41.648Z,8.12
2023-01-11T18:56:43.384Z,8.12
2023-01-11T19:01:56.610Z,7.97
2023-01-11T19:07:03.059Z,7.93
2023-01-11T19:12:05.041Z,7.93
2023-01-11T19:17:10.676Z,7.87
2023-01-11T19:22:13.681Z,7.68
2023-01-11T19:27:15.607Z,7.61
2023-01-11T19:32:20.927Z,7.55
2023-01-11T19:37:22.571Z,7.60
2023-01-11T19:42:24.266Z,7.77
2023-01-11T19:47:25.774Z,7.70
2023-01-11T19:52:27.904Z,7.48
2023-01-11T19:57:30.560Z,7.39
2023-01-11T20:02:33.335Z,7.34
2023-01-11T20:07:42.581Z,7.26
2023-01-11T20:12:48.844Z,7.11
2023-01-11T20:17:50.293Z,7.12
2023-01-11T20:22:51.736Z,7.05
2023-01-11T20:27:53.375Z,7.01
2023-01-11T20:32:54.831Z,6.97
2023-01-11T20:37:56.529Z,7.00
2023-01-11T20:43:04.057Z,7.03
2023-01-11T20:48:07.391Z,7.01
2023-01-11T20:53:20.881Z,7.02
2023-01-11T20:58:24.934Z,7.06
2023-01-11T21:03:26.323Z,7.03
2023-01-11T21:08:27.909Z,7.01
2023-01-11T21:13:29.332Z,7.01
2023-01-11T21:18:30.778Z,6.96
2023-01-11T21:23:32.309Z,6.93
2023-01-11T21:28:35.916Z,6.98
2023-01-11T21:33:39.272Z,7.01
2023-01-11T21:38:40.950Z,7.04
2023-01-11T21:43:48.549Z,7.02
2023-01-11T21:48:50.072Z,7.03
2023-01-11T21:53:52.791Z,7.01
2023-01-11T21:58:54.291Z,7.06
2023-01-11T22:03:56.226Z,7.01
2023-01-11T22:08:58.841Z,6.99
2023-01-11T22:14:02.522Z,7.00
2023-01-11T22:19:07.396Z,7.02
2023-01-11T22:24:11.963Z,7.08
2023-01-11T22:29:20.231Z,7.13
2023-01-11T22:34:24.069Z,7.17
2023-01-11T22:39:25.748Z,7.18
2023-01-11T22:44:27.747Z,7.16
2023-01-11T22:49:32.612Z,7.25
2023-01-11T22:54:35.147Z,7.26
2023-01-11T22:59:36.732Z,7.26
2023-01-11T23:04:38.225Z,7.38
2023-01-11T23:09:39.975Z,7.39
2023-01-11T23:14:42.458Z,7.36
2023-01-11T23:19:47.417Z,7.34
2023-01-11T23:24:48.985Z,7.29
2023-01-11T23:29:50.408Z,7.23
2023-01-11T23:34:53.032Z,7.21
2023-01-11T23:39:56.936Z,7.15
2023-01-11T23:44:58.760Z,7.09
2023-01-11T23:50:02.438Z,7.07
2023-01-11T23:55:04.118Z,7.06
